Terminal Aerodrome Forecast
Issued by NWS Shreveport, LA

Home | Current Version | Previous Version | Text Only | Print | Product List | Glossary On
Versions: 1 2 3 4 5 6 7 8 9 10 11 12 13 14 15 16 17
342
FTUS44 KSHV 261739
TAFGGG
TAF
KGGG 261739Z 2618/2718 07006KT P6SM BKN070 BKN250
     FM270000 09004KT P6SM SCT070 BKN250
     FM270900 00000KT P6SM FEW030 SCT070 BKN200
      TEMPO 2710/2712 6SM BR
     FM271500 VRB06KT P6SM SCT040 SCT080 SCT250=

USA.gov is the U.S. government's official web portal to all federal, state and local government web resources and services.